sensor_id;sensor_type;location;lat;lon;timestamp;temperature;humidity
24614;DHT22;12760;46.296;25.290;2023-04-25T00:01:11;14.80;99.90
24614;DHT22;12760;46.296;25.290;2023-04-25T00:03:38;14.80;99.90
24614;DHT22;12760;46.296;25.290;2023-04-25T00:06:04;14.80;99.90
24614;DHT22;12760;46.296;25.290;2023-04-25T00:08:30;14.90;99.90
24614;DHT22;12760;46.296;25.290;2023-04-25T00:11:00;14.90;99.90
24614;DHT22;12760;46.296;25.290;2023-04-25T00:13:26;14.90;99.90
24614;DHT22;12760;46.296;25.290;2023-04-25T00:15:52;14.80;99.90
24614;DHT22;12760;46.296;25.290;2023-04-25T00:18:25;14.70;99.90
24614;DHT22;12760;46.296;25.290;2023-04-25T00:20:54;14.60;99.90
24614;DHT22;12760;46.296;25.290;2023-04-25T00:23:20;14.60;99.90
24614;DHT22;12760;46.296;25.290;2023-04-25T00:25:50;14.60;99.90
24614;DHT22;12760;46.296;25.290;2023-04-25T00:28:16;14.50;99.90
24614;DHT22;12760;46.296;25.290;2023-04-25T00:30:43;14.50;99.90
24614;DHT22;12760;46.296;25.290;2023-04-25T00:33:08;14.50;99.90
24614;DHT22;12760;46.296;25.290;2023-04-25T00:35:35;14.50;99.90
24614;DHT22;12760;46.296;25.290;2023-04-25T00:38:01;14.50;99.90
24614;DHT22;12760;46.296;25.290;2023-04-25T00:40:27;14.50;99.90
24614;DHT22;12760;46.296;25.290;2023-04-25T00:42:53;14.50;99.90
24614;DHT22;12760;46.296;25.290;2023-04-25T00:45:19;14.60;99.90
24614;DHT22;12760;46.296;25.290;2023-04-25T00:47:45;14.60;99.90
24614;DHT22;12760;46.296;25.290;2023-04-25T00:50:11;14.60;99.90
24614;DHT22;12760;46.296;25.290;2023-04-25T00:52:39;14.60;99.90
24614;DHT22;12760;46.296;25.290;2023-04-25T00:55:06;14.50;99.90
24614;DHT22;12760;46.296;25.290;2023-04-25T00:57:33;14.60;99.90
24614;DHT22;12760;46.296;25.290;2023-04-25T00:59:59;14.50;99.90
24614;DHT22;12760;46.296;25.290;2023-04-25T01:02:26;14.50;99.90
24614;DHT22;12760;46.296;25.290;2023-04-25T01:04:52;14.40;99.90
24614;DHT22;12760;46.296;25.290;2023-04-25T01:07:18;14.40;99.90
24614;DHT22;12760;46.296;25.290;2023-04-25T01:09:44;14.50;99.90
24614;DHT22;12760;46.296;25.290;2023-04-25T01:12:10;14.50;99.90
24614;DHT22;12760;46.296;25.290;2023-04-25T01:14:37;14.60;99.90
24614;DHT22;12760;46.296;25.290;2023-04-25T01:17:02;14.70;99.90
24614;DHT22;12760;46.296;25.290;2023-04-25T01:19:28;14.70;99.90
24614;DHT22;12760;46.296;25.290;2023-04-25T01:21:54;14.60;99.90
24614;DHT22;12760;46.296;25.290;2023-04-25T01:24:20;14.60;99.90
24614;DHT22;12760;46.296;25.290;2023-04-25T01:26:46;14.60;99.90
24614;DHT22;12760;46.296;25.290;2023-04-25T01:29:17;14.60;99.90
24614;DHT22;12760;46.296;25.290;2023-04-25T01:31:43;14.60;99.90
24614;DHT22;12760;46.296;25.290;2023-04-25T01:34:10;14.60;99.90
24614;DHT22;12760;46.296;25.290;2023-04-25T01:36:36;14.70;99.90
24614;DHT22;12760;46.296;25.290;2023-04-25T01:39:02;14.70;99.90
24614;DHT22;12760;46.296;25.290;2023-04-25T01:41:28;14.70;99.90
24614;DHT22;12760;46.296;25.290;2023-04-25T01:43:54;14.60;99.90
24614;DHT22;12760;46.296;25.290;2023-04-25T01:46:20;14.50;99.90
24614;DHT22;12760;46.296;25.290;2023-04-25T01:48:46;14.50;99.90
24614;DHT22;12760;46.296;25.290;2023-04-25T01:51:12;14.40;99.90
24614;DHT22;12760;46.296;25.290;2023-04-25T01:53:38;14.40;99.90
24614;DHT22;12760;46.296;25.290;2023-04-25T01:56:04;14.30;99.90
24614;DHT22;12760;46.296;25.290;2023-04-25T01:58:30;14.30;99.90
24614;DHT22;12760;46.296;25.290;2023-04-25T02:00:56;14.30;99.90
24614;DHT22;12760;46.296;25.290;2023-04-25T02:03:22;14.10;99.90
24614;DHT22;12760;46.296;25.290;2023-04-25T02:05:48;14.20;99.90
24614;DHT22;12760;46.296;25.290;2023-04-25T02:08:14;14.10;99.90
24614;DHT22;12760;46.296;25.290;2023-04-25T02:10:39;14.10;99.90
24614;DHT22;12760;46.296;25.290;2023-04-25T02:13:05;14.10;99.90
24614;DHT22;12760;46.296;25.290;2023-04-25T02:15:31;14.10;99.90
24614;DHT22;12760;46.296;25.290;2023-04-25T02:17:57;14.10;99.90
24614;DHT22;12760;46.296;25.290;2023-04-25T02:20:24;14.10;99.90
24614;DHT22;12760;46.296;25.290;2023-04-25T02:22:50;14.00;99.90
24614;DHT22;12760;46.296;25.290;2023-04-25T02:25:17;14.00;99.90
24614;DHT22;12760;46.296;25.290;2023-04-25T02:27:43;14.10;99.90
24614;DHT22;12760;46.296;25.290;2023-04-25T02:30:09;14.10;99.90
24614;DHT22;12760;46.296;25.290;2023-04-25T02:32:35;14.00;99.90
24614;DHT22;12760;46.296;25.290;2023-04-25T02:35:01;14.00;99.90
24614;DHT22;12760;46.296;25.290;2023-04-25T02:37:30;14.00;99.90
24614;DHT22;12760;46.296;25.290;2023-04-25T02:39:56;14.00;99.90
24614;DHT22;12760;46.296;25.290;2023-04-25T02:42:22;14.00;99.90
24614;DHT22;12760;46.296;25.290;2023-04-25T02:44:48;14.00;99.90
24614;DHT22;12760;46.296;25.290;2023-04-25T02:47:14;14.00;99.90
24614;DHT22;12760;46.296;25.290;2023-04-25T02:49:39;14.10;99.90
24614;DHT22;12760;46.296;25.290;2023-04-25T02:52:06;14.10;99.90
24614;DHT22;12760;46.296;25.290;2023-04-25T02:54:32;14.10;99.90
24614;DHT22;12760;46.296;25.290;2023-04-25T02:56:57;14.10;99.90
24614;DHT22;12760;46.296;25.290;2023-04-25T02:59:23;14.00;99.90
24614;DHT22;12760;46.296;25.290;2023-04-25T03:01:49;14.00;99.90
24614;DHT22;12760;46.296;25.290;2023-04-25T03:04:15;14.00;99.90
24614;DHT22;12760;46.296;25.290;2023-04-25T03:06:40;14.00;99.90
24614;DHT22;12760;46.296;25.290;2023-04-25T03:09:06;14.10;99.90
24614;DHT22;12760;46.296;25.290;2023-04-25T03:11:32;14.10;99.90
24614;DHT22;12760;46.296;25.290;2023-04-25T03:13:58;14.10;99.90
24614;DHT22;12760;46.296;25.290;2023-04-25T03:16:24;14.00;99.90
24614;DHT22;12760;46.296;25.290;2023-04-25T03:18:49;13.90;99.90
24614;DHT22;12760;46.296;25.290;2023-04-25T03:21:16;13.90;99.90
24614;DHT22;12760;46.296;25.290;2023-04-25T03:23:42;13.90;99.90
24614;DHT22;12760;46.296;25.290;2023-04-25T03:26:08;13.90;99.90
24614;DHT22;12760;46.296;25.290;2023-04-25T03:28:33;13.80;99.90
24614;DHT22;12760;46.296;25.290;2023-04-25T03:30:59;13.90;99.90
24614;DHT22;12760;46.296;25.290;2023-04-25T03:33:25;13.80;99.90
24614;DHT22;12760;46.296;25.290;2023-04-25T03:35:51;13.90;99.90
24614;DHT22;12760;46.296;25.290;2023-04-25T03:38:17;13.80;99.90
24614;DHT22;12760;46.296;25.290;2023-04-25T03:40:43;13.80;99.90
24614;DHT22;12760;46.296;25.290;2023-04-25T03:43:08;13.80;99.90
24614;DHT22;12760;46.296;25.290;2023-04-25T03:45:34;13.80;99.90
24614;DHT22;12760;46.296;25.290;2023-04-25T03:48:00;13.90;99.90
24614;DHT22;12760;46.296;25.290;2023-04-25T03:50:26;14.00;99.90
24614;DHT22;12760;46.296;25.290;2023-04-25T03:52:51;13.90;99.90
24614;DHT22;12760;46.296;25.290;2023-04-25T03:55:17;13.90;99.90
24614;DHT22;12760;46.296;25.290;2023-04-25T03:57:43;13.70;99.90
24614;DHT22;12760;46.296;25.290;2023-04-25T04:00:09;13.70;99.90
24614;DHT22;12760;46.296;25.290;2023-04-25T04:02:35;13.70;99.90
24614;DHT22;12760;46.296;25.290;2023-04-25T04:05:03;13.70;99.90
24614;DHT22;12760;46.296;25.290;2023-04-25T04:07:29;13.70;99.90
24614;DHT22;12760;46.296;25.290;2023-04-25T04:09:55;13.70;99.90
24614;DHT22;12760;46.296;25.290;2023-04-25T04:12:20;13.70;99.90
24614;DHT22;12760;46.296;25.290;2023-04-25T04:14:46;13.70;99.90
24614;DHT22;12760;46.296;25.290;2023-04-25T04:17:12;13.70;99.90
24614;DHT22;12760;46.296;25.290;2023-04-25T04:19:37;13.80;99.90
24614;DHT22;12760;46.296;25.290;2023-04-25T04:22:03;13.80;99.90
24614;DHT22;12760;46.296;25.290;2023-04-25T04:24:29;13.80;99.90
24614;DHT22;12760;46.296;25.290;2023-04-25T04:26:54;13.80;99.90
24614;DHT22;12760;46.296;25.290;2023-04-25T04:29:21;13.80;99.90
24614;DHT22;12760;46.296;25.290;2023-04-25T04:31:50;13.80;99.90
24614;DHT22;12760;46.296;25.290;2023-04-25T04:34:19;13.80;99.90
24614;DHT22;12760;46.296;25.290;2023-04-25T04:36:45;13.80;99.90
24614;DHT22;12760;46.296;25.290;2023-04-25T04:39:12;13.80;99.90
24614;DHT22;12760;46.296;25.290;2023-04-25T04:41:38;13.90;99.90
24614;DHT22;12760;46.296;25.290;2023-04-25T04:44:05;14.00;99.90
24614;DHT22;12760;46.296;25.290;2023-04-25T04:46:32;14.00;99.90
24614;DHT22;12760;46.296;25.290;2023-04-25T04:49:04;14.00;99.90
24614;DHT22;12760;46.296;25.290;2023-04-25T04:51:30;14.00;99.90
24614;DHT22;12760;46.296;25.290;2023-04-25T04:53:56;14.10;99.90
24614;DHT22;12760;46.296;25.290;2023-04-25T04:56:24;14.10;99.90
24614;DHT22;12760;46.296;25.290;2023-04-25T04:58:51;14.10;99.90
24614;DHT22;12760;46.296;25.290;2023-04-25T05:01:18;14.10;99.90
24614;DHT22;12760;46.296;25.290;2023-04-25T05:03:43;14.00;99.90
24614;DHT22;12760;46.296;25.290;2023-04-25T05:06:09;14.00;99.90
24614;DHT22;12760;46.296;25.290;2023-04-25T05:08:36;14.00;99.90
24614;DHT22;12760;46.296;25.290;2023-04-25T05:11:02;14.00;99.90
24614;DHT22;12760;46.296;25.290;2023-04-25T05:13:27;14.00;99.90
24614;DHT22;12760;46.296;25.290;2023-04-25T05:15:53;14.00;99.90
24614;DHT22;12760;46.296;25.290;2023-04-25T05:18:19;14.00;99.90
24614;DHT22;12760;46.296;25.290;2023-04-25T05:20:45;14.00;99.90
24614;DHT22;12760;46.296;25.290;2023-04-25T05:23:10;14.00;99.90
24614;DHT22;12760;46.296;25.290;2023-04-25T05:25:36;14.10;99.90
24614;DHT22;12760;46.296;25.290;2023-04-25T05:28:02;14.10;99.90
24614;DHT22;12760;46.296;25.290;2023-04-25T05:30:28;14.20;99.90
24614;DHT22;12760;46.296;25.290;2023-04-25T05:32:53;14.20;99.90
24614;DHT22;12760;46.296;25.290;2023-04-25T05:35:19;14.20;99.90
24614;DHT22;12760;46.296;25.290;2023-04-25T05:37:45;14.20;99.90
24614;DHT22;12760;46.296;25.290;2023-04-25T05:40:11;14.30;99.90
24614;DHT22;12760;46.296;25.290;2023-04-25T05:42:36;14.30;99.90
24614;DHT22;12760;46.296;25.290;2023-04-25T05:45:02;14.40;99.90
24614;DHT22;12760;46.296;25.290;2023-04-25T05:47:28;14.40;99.90
24614;DHT22;12760;46.296;25.290;2023-04-25T05:49:54;14.50;99.90
24614;DHT22;12760;46.296;25.290;2023-04-25T05:52:19;14.50;99.90
24614;DHT22;12760;46.296;25.290;2023-04-25T05:54:45;14.60;99.90
24614;DHT22;12760;46.296;25.290;2023-04-25T05:57:29;14.60;99.90
24614;DHT22;12760;46.296;25.290;2023-04-25T05:59:55;14.60;99.90
24614;DHT22;12760;46.296;25.290;2023-04-25T06:02:21;14.70;99.90
24614;DHT22;12760;46.296;25.290;2023-04-25T06:04:50;14.70;99.90
24614;DHT22;12760;46.296;25.290;2023-04-25T06:07:16;14.70;99.90
24614;DHT22;12760;46.296;25.290;2023-04-25T06:09:43;14.70;99.90
24614;DHT22;12760;46.296;25.290;2023-04-25T06:12:09;14.70;99.90
24614;DHT22;12760;46.296;25.290;2023-04-25T06:14:35;14.70;99.90
24614;DHT22;12760;46.296;25.290;2023-04-25T06:17:01;14.70;99.90
24614;DHT22;12760;46.296;25.290;2023-04-25T06:19:35;14.70;99.90
24614;DHT22;12760;46.296;25.290;2023-04-25T06:22:01;14.80;99.90
24614;DHT22;12760;46.296;25.290;2023-04-25T06:24:27;14.90;99.90
24614;DHT22;12760;46.296;25.290;2023-04-25T06:26:53;14.90;99.90
24614;DHT22;12760;46.296;25.290;2023-04-25T06:29:19;15.00;99.90
24614;DHT22;12760;46.296;25.290;2023-04-25T06:31:45;15.00;99.90
24614;DHT22;12760;46.296;25.290;2023-04-25T06:34:11;15.10;99.90
24614;DHT22;12760;46.296;25.290;2023-04-25T06:36:36;15.20;99.90
24614;DHT22;12760;46.296;25.290;2023-04-25T06:39:02;15.30;99.90
24614;DHT22;12760;46.296;25.290;2023-04-25T06:41:28;15.30;99.90
24614;DHT22;12760;46.296;25.290;2023-04-25T06:43:54;15.40;99.90
24614;DHT22;12760;46.296;25.290;2023-04-25T06:46:19;15.40;99.90
24614;DHT22;12760;46.296;25.290;2023-04-25T06:48:45;15.50;99.90
24614;DHT22;12760;46.296;25.290;2023-04-25T06:51:11;15.50;99.90
24614;DHT22;12760;46.296;25.290;2023-04-25T06:53:38;15.60;99.90
24614;DHT22;12760;46.296;25.290;2023-04-25T06:56:04;15.60;99.90
24614;DHT22;12760;46.296;25.290;2023-04-25T06:58:30;15.60;99.90
24614;DHT22;12760;46.296;25.290;2023-04-25T07:00:56;15.70;99.90
24614;DHT22;12760;46.296;25.290;2023-04-25T07:03:22;15.80;99.90
24614;DHT22;12760;46.296;25.290;2023-04-25T07:05:47;16.00;99.90
24614;DHT22;12760;46.296;25.290;2023-04-25T07:08:13;16.20;99.90
24614;DHT22;12760;46.296;25.290;2023-04-25T07:10:39;16.50;99.90
24614;DHT22;12760;46.296;25.290;2023-04-25T07:13:05;16.70;99.90
24614;DHT22;12760;46.296;25.290;2023-04-25T07:15:31;16.90;99.90
24614;DHT22;12760;46.296;25.290;2023-04-25T07:17:56;17.10;99.90
24614;DHT22;12760;46.296;25.290;2023-04-25T07:20:22;17.20;99.90
24614;DHT22;12760;46.296;25.290;2023-04-25T07:22:48;17.20;99.90
24614;DHT22;12760;46.296;25.290;2023-04-25T07:25:15;17.20;99.90
24614;DHT22;12760;46.296;25.290;2023-04-25T07:27:41;17.20;99.90
24614;DHT22;12760;46.296;25.290;2023-04-25T07:30:07;17.30;99.90
24614;DHT22;12760;46.296;25.290;2023-04-25T07:32:34;17.30;99.90
24614;DHT22;12760;46.296;25.290;2023-04-25T07:35:00;17.20;99.90
24614;DHT22;12760;46.296;25.290;2023-04-25T07:37:27;17.30;99.90
24614;DHT22;12760;46.296;25.290;2023-04-25T07:39:53;17.30;99.90
24614;DHT22;12760;46.296;25.290;2023-04-25T07:42:18;17.30;99.90
24614;DHT22;12760;46.296;25.290;2023-04-25T07:44:44;17.30;99.90
24614;DHT22;12760;46.296;25.290;2023-04-25T07:47:10;17.40;99.90
24614;DHT22;12760;46.296;25.290;2023-04-25T07:49:39;17.40;99.90
24614;DHT22;12760;46.296;25.290;2023-04-25T07:52:05;17.50;99.90
24614;DHT22;12760;46.296;25.290;2023-04-25T07:54:32;17.50;99.90
24614;DHT22;12760;46.296;25.290;2023-04-25T07:56:58;17.50;99.90
24614;DHT22;12760;46.296;25.290;2023-04-25T07:59:24;17.50;99.90
24614;DHT22;12760;46.296;25.290;2023-04-25T08:01:50;17.50;99.90
24614;DHT22;12760;46.296;25.290;2023-04-25T08:04:16;17.50;99.90
24614;DHT22;12760;46.296;25.290;2023-04-25T08:06:42;17.50;99.90
24614;DHT22;12760;46.296;25.290;2023-04-25T08:09:09;17.60;99.90
24614;DHT22;12760;46.296;25.290;2023-04-25T08:11:35;17.70;99.90
24614;DHT22;12760;46.296;25.290;2023-04-25T08:14:01;17.80;99.90
24614;DHT22;12760;46.296;25.290;2023-04-25T08:16:27;17.80;99.90
24614;DHT22;12760;46.296;25.290;2023-04-25T08:18:53;17.80;99.90
24614;DHT22;12760;46.296;25.290;2023-04-25T08:21:19;17.80;99.90
24614;DHT22;12760;46.296;25.290;2023-04-25T08:23:45;17.80;99.90
24614;DHT22;12760;46.296;25.290;2023-04-25T08:26:11;17.80;99.90
24614;DHT22;12760;46.296;25.290;2023-04-25T08:28:37;18.00;99.90
24614;DHT22;12760;46.296;25.290;2023-04-25T08:31:03;18.10;99.60
24614;DHT22;12760;46.296;25.290;2023-04-25T08:33:30;18.10;99.80
24614;DHT22;12760;46.296;25.290;2023-04-25T08:35:57;18.20;99.90
24614;DHT22;12760;46.296;25.290;2023-04-25T08:38:22;18.30;99.60
24614;DHT22;12760;46.296;25.290;2023-04-25T08:40:51;18.40;99.10
24614;DHT22;12760;46.296;25.290;2023-04-25T08:43:19;18.40;99.40
24614;DHT22;12760;46.296;25.290;2023-04-25T08:45:45;18.50;99.60
24614;DHT22;12760;46.296;25.290;2023-04-25T08:48:13;18.50;99.90
24614;DHT22;12760;46.296;25.290;2023-04-25T08:50:50;18.50;99.30
24614;DHT22;12760;46.296;25.290;2023-04-25T08:53:20;18.50;99.20
24614;DHT22;12760;46.296;25.290;2023-04-25T08:55:47;18.60;99.40
24614;DHT22;12760;46.296;25.290;2023-04-25T08:58:14;18.70;99.40
24614;DHT22;12760;46.296;25.290;2023-04-25T09:00:40;18.80;99.50
24614;DHT22;12760;46.296;25.290;2023-04-25T09:03:06;18.90;99.90
24614;DHT22;12760;46.296;25.290;2023-04-25T09:05:36;18.80;99.40
24614;DHT22;12760;46.296;25.290;2023-04-25T09:08:02;18.80;99.30
24614;DHT22;12760;46.296;25.290;2023-04-25T09:10:28;19.00;99.50
24614;DHT22;12760;46.296;25.290;2023-04-25T09:13:11;19.00;98.40
24614;DHT22;12760;46.296;25.290;2023-04-25T09:15:55;19.30;99.50
24614;DHT22;12760;46.296;25.290;2023-04-25T09:18:29;19.50;98.60
24614;DHT22;12760;46.296;25.290;2023-04-25T09:21:06;19.50;98.30
24614;DHT22;12760;46.296;25.290;2023-04-25T09:23:44;19.50;98.60
24614;DHT22;12760;46.296;25.290;2023-04-25T09:26:10;19.40;98.20
24614;DHT22;12760;46.296;25.290;2023-04-25T09:28:38;19.40;98.30
24614;DHT22;12760;46.296;25.290;2023-04-25T09:31:04;19.30;98.60
24614;DHT22;12760;46.296;25.290;2023-04-25T09:33:34;19.20;98.80
24614;DHT22;12760;46.296;25.290;2023-04-25T09:36:04;19.20;98.50
24614;DHT22;12760;46.296;25.290;2023-04-25T09:38:51;19.30;98.70
24614;DHT22;12760;46.296;25.290;2023-04-25T09:41:25;19.40;98.50
24614;DHT22;12760;46.296;25.290;2023-04-25T09:43:50;19.30;98.50
24614;DHT22;12760;46.296;25.290;2023-04-25T09:46:16;19.40;98.60
24614;DHT22;12760;46.296;25.290;2023-04-25T09:48:50;19.30;98.20
24614;DHT22;12760;46.296;25.290;2023-04-25T09:51:16;19.10;98.20
24614;DHT22;12760;46.296;25.290;2023-04-25T09:53:44;19.00;97.90
24614;DHT22;12760;46.296;25.290;2023-04-25T09:56:12;19.10;97.70
24614;DHT22;12760;46.296;25.290;2023-04-25T09:58:40;19.30;97.50
24614;DHT22;12760;46.296;25.290;2023-04-25T10:01:08;19.40;97.40
24614;DHT22;12760;46.296;25.290;2023-04-25T10:03:36;19.60;97.90
24614;DHT22;12760;46.296;25.290;2023-04-25T10:06:05;19.80;96.80
24614;DHT22;12760;46.296;25.290;2023-04-25T10:08:34;19.90;96.60
24614;DHT22;12760;46.296;25.290;2023-04-25T10:11:02;19.90;96.30
24614;DHT22;12760;46.296;25.290;2023-04-25T10:13:32;20.10;96.70
24614;DHT22;12760;46.296;25.290;2023-04-25T10:16:00;20.30;96.40
24614;DHT22;12760;46.296;25.290;2023-04-25T10:18:27;20.50;96.10
24614;DHT22;12760;46.296;25.290;2023-04-25T10:20:59;20.50;95.10
24614;DHT22;12760;46.296;25.290;2023-04-25T10:23:25;20.60;95.40
24614;DHT22;12760;46.296;25.290;2023-04-25T10:25:52;20.80;96.00
24614;DHT22;12760;46.296;25.290;2023-04-25T10:28:18;21.10;95.20
24614;DHT22;12760;46.296;25.290;2023-04-25T10:31:07;21.10;94.30
24614;DHT22;12760;46.296;25.290;2023-04-25T10:33:33;21.30;95.40
24614;DHT22;12760;46.296;25.290;2023-04-25T10:36:09;21.30;94.10
24614;DHT22;12760;46.296;25.290;2023-04-25T10:38:36;21.60;94.80
24614;DHT22;12760;46.296;25.290;2023-04-25T10:41:04;21.70;94.00
24614;DHT22;12760;46.296;25.290;2023-04-25T10:46:25;21.90;93.60
24614;DHT22;12760;46.296;25.290;2023-04-25T10:48:56;22.00;92.70
24614;DHT22;12760;46.296;25.290;2023-04-25T10:51:32;21.90;91.40
24614;DHT22;12760;46.296;25.290;2023-04-25T10:54:05;21.70;92.30
24614;DHT22;12760;46.296;25.290;2023-04-25T10:56:39;21.80;93.10
24614;DHT22;12760;46.296;25.290;2023-04-25T10:59:13;21.80;92.80
24614;DHT22;12760;46.296;25.290;2023-04-25T11:01:45;21.90;92.50
24614;DHT22;12760;46.296;25.290;2023-04-25T11:04:20;22.10;92.80
24614;DHT22;12760;46.296;25.290;2023-04-25T11:06:50;22.20;92.50
24614;DHT22;12760;46.296;25.290;2023-04-25T11:09:23;22.20;92.00
24614;DHT22;12760;46.296;25.290;2023-04-25T11:11:58;22.00;92.50
24614;DHT22;12760;46.296;25.290;2023-04-25T11:14:24;21.90;91.10
24614;DHT22;12760;46.296;25.290;2023-04-25T11:16:57;21.80;91.30
24614;DHT22;12760;46.296;25.290;2023-04-25T11:19:24;21.90;91.20
24614;DHT22;12760;46.296;25.290;2023-04-25T11:21:50;21.80;91.20
24614;DHT22;12760;46.296;25.290;2023-04-25T11:24:21;21.80;90.90
24614;DHT22;12760;46.296;25.290;2023-04-25T11:26:50;22.10;91.40
24614;DHT22;12760;46.296;25.290;2023-04-25T11:29:17;22.20;91.20
24614;DHT22;12760;46.296;25.290;2023-04-25T11:31:45;22.40;91.80
24614;DHT22;12760;46.296;25.290;2023-04-25T11:34:11;22.50;91.40
24614;DHT22;12760;46.296;25.290;2023-04-25T11:36:38;22.30;91.60
24614;DHT22;12760;46.296;25.290;2023-04-25T11:39:04;22.20;91.90
24614;DHT22;12760;46.296;25.290;2023-04-25T11:41:31;22.20;90.70
24614;DHT22;12760;46.296;25.290;2023-04-25T11:43:57;22.00;90.20
24614;DHT22;12760;46.296;25.290;2023-04-25T11:46:23;22.00;91.20
24614;DHT22;12760;46.296;25.290;2023-04-25T11:48:48;21.90;91.10
24614;DHT22;12760;46.296;25.290;2023-04-25T11:51:16;22.00;91.70
24614;DHT22;12760;46.296;25.290;2023-04-25T11:53:42;21.90;91.20
24614;DHT22;12760;46.296;25.290;2023-04-25T11:56:10;22.00;91.70
24614;DHT22;12760;46.296;25.290;2023-04-25T11:59:06;22.00;91.20
24614;DHT22;12760;46.296;25.290;2023-04-25T12:01:34;22.00;91.40
24614;DHT22;12760;46.296;25.290;2023-04-25T12:04:23;21.80;91.30
24614;DHT22;12760;46.296;25.290;2023-04-25T12:06:52;21.80;91.70
24614;DHT22;12760;46.296;25.290;2023-04-25T12:09:28;21.80;92.30
24614;DHT22;12760;46.296;25.290;2023-04-25T12:11:56;21.80;92.00
24614;DHT22;12760;46.296;25.290;2023-04-25T12:14:32;21.60;92.20
24614;DHT22;12760;46.296;25.290;2023-04-25T12:16:59;21.60;92.40
24614;DHT22;12760;46.296;25.290;2023-04-25T12:19:31;21.50;92.70
24614;DHT22;12760;46.296;25.290;2023-04-25T12:21:59;21.50;92.70
24614;DHT22;12760;46.296;25.290;2023-04-25T12:24:26;21.10;93.10
24614;DHT22;12760;46.296;25.290;2023-04-25T12:26:53;20.90;93.50
24614;DHT22;12760;46.296;25.290;2023-04-25T12:29:25;20.60;93.90
24614;DHT22;12760;46.296;25.290;2023-04-25T12:31:53;20.30;93.90
24614;DHT22;12760;46.296;25.290;2023-04-25T12:34:20;20.10;94.40
24614;DHT22;12760;46.296;25.290;2023-04-25T12:36:46;19.90;94.90
24614;DHT22;12760;46.296;25.290;2023-04-25T12:39:23;19.50;95.40
24614;DHT22;12760;46.296;25.290;2023-04-25T12:41:52;19.20;96.30
24614;DHT22;12760;46.296;25.290;2023-04-25T12:44:19;19.10;96.70
24614;DHT22;12760;46.296;25.290;2023-04-25T12:46:46;18.90;97.30
24614;DHT22;12760;46.296;25.290;2023-04-25T12:49:12;18.90;96.80
24614;DHT22;12760;46.296;25.290;2023-04-25T12:51:38;18.60;96.30
24614;DHT22;12760;46.296;25.290;2023-04-25T12:54:05;18.30;96.80
24614;DHT22;12760;46.296;25.290;2023-04-25T12:56:32;18.10;96.40
24614;DHT22;12760;46.296;25.290;2023-04-25T12:58:58;18.10;97.30
24614;DHT22;12760;46.296;25.290;2023-04-25T13:01:25;18.00;96.70
24614;DHT22;12760;46.296;25.290;2023-04-25T13:03:51;17.90;96.30
24614;DHT22;12760;46.296;25.290;2023-04-25T13:06:17;17.60;96.10
24614;DHT22;12760;46.296;25.290;2023-04-25T13:08:44;17.40;96.70
24614;DHT22;12760;46.296;25.290;2023-04-25T13:11:10;17.30;96.60
24614;DHT22;12760;46.296;25.290;2023-04-25T13:13:36;17.20;96.60
24614;DHT22;12760;46.296;25.290;2023-04-25T13:16:06;17.10;96.90
24614;DHT22;12760;46.296;25.290;2023-04-25T13:18:32;17.20;98.60
24614;DHT22;12760;46.296;25.290;2023-04-25T13:20:59;17.30;98.20
24614;DHT22;12760;46.296;25.290;2023-04-25T13:23:26;17.60;98.50
24614;DHT22;12760;46.296;25.290;2023-04-25T13:25:53;17.70;98.20
24614;DHT22;12760;46.296;25.290;2023-04-25T13:28:19;17.80;98.70
24614;DHT22;12760;46.296;25.290;2023-04-25T13:30:44;17.80;99.90
24614;DHT22;12760;46.296;25.290;2023-04-25T13:33:11;17.70;99.90
24614;DHT22;12760;46.296;25.290;2023-04-25T13:35:37;17.70;99.90
24614;DHT22;12760;46.296;25.290;2023-04-25T13:38:03;17.70;99.90
24614;DHT22;12760;46.296;25.290;2023-04-25T13:40:30;17.70;99.90
24614;DHT22;12760;46.296;25.290;2023-04-25T13:42:55;17.60;99.90
24614;DHT22;12760;46.296;25.290;2023-04-25T13:45:21;17.60;99.90
24614;DHT22;12760;46.296;25.290;2023-04-25T13:47:47;17.60;99.90
24614;DHT22;12760;46.296;25.290;2023-04-25T13:50:13;17.70;99.90
24614;DHT22;12760;46.296;25.290;2023-04-25T13:52:41;17.60;99.90
24614;DHT22;12760;46.296;25.290;2023-04-25T13:55:07;17.60;99.90
24614;DHT22;12760;46.296;25.290;2023-04-25T13:57:34;17.50;99.90
24614;DHT22;12760;46.296;25.290;2023-04-25T14:00:00;17.40;99.90
24614;DHT22;12760;46.296;25.290;2023-04-25T14:02:31;17.30;99.90
24614;DHT22;12760;46.296;25.290;2023-04-25T14:04:57;17.30;99.90
24614;DHT22;12760;46.296;25.290;2023-04-25T14:07:22;17.30;99.90
24614;DHT22;12760;46.296;25.290;2023-04-25T14:09:48;17.40;99.90
24614;DHT22;12760;46.296;25.290;2023-04-25T14:12:15;17.50;99.90
24614;DHT22;12760;46.296;25.290;2023-04-25T14:14:41;17.60;99.90
24614;DHT22;12760;46.296;25.290;2023-04-25T14:17:08;17.60;99.90
24614;DHT22;12760;46.296;25.290;2023-04-25T14:19:33;17.70;99.90
24614;DHT22;12760;46.296;25.290;2023-04-25T14:21:59;17.70;99.90
24614;DHT22;12760;46.296;25.290;2023-04-25T14:24:25;17.60;99.90
24614;DHT22;12760;46.296;25.290;2023-04-25T14:26:51;17.60;99.90
24614;DHT22;12760;46.296;25.290;2023-04-25T14:29:17;17.60;99.90
24614;DHT22;12760;46.296;25.290;2023-04-25T14:31:42;17.60;99.90
24614;DHT22;12760;46.296;25.290;2023-04-25T14:34:08;17.60;99.90
24614;DHT22;12760;46.296;25.290;2023-04-25T14:36:35;17.60;99.90
24614;DHT22;12760;46.296;25.290;2023-04-25T14:39:02;17.60;99.90
24614;DHT22;12760;46.296;25.290;2023-04-25T14:41:27;17.50;99.90
24614;DHT22;12760;46.296;25.290;2023-04-25T14:43:53;17.40;99.90
24614;DHT22;12760;46.296;25.290;2023-04-25T14:46:20;17.20;99.90
24614;DHT22;12760;46.296;25.290;2023-04-25T14:48:46;16.90;99.90
24614;DHT22;12760;46.296;25.290;2023-04-25T14:51:12;17.00;99.90
24614;DHT22;12760;46.296;25.290;2023-04-25T14:53:39;17.10;99.90
24614;DHT22;12760;46.296;25.290;2023-04-25T14:56:05;17.00;99.90
24614;DHT22;12760;46.296;25.290;2023-04-25T14:58:31;16.90;99.90
24614;DHT22;12760;46.296;25.290;2023-04-25T15:00:57;16.80;99.90
24614;DHT22;12760;46.296;25.290;2023-04-25T15:03:22;16.70;99.90
24614;DHT22;12760;46.296;25.290;2023-04-25T15:05:48;16.80;99.90
24614;DHT22;12760;46.296;25.290;2023-04-25T15:08:14;16.90;99.90
24614;DHT22;12760;46.296;25.290;2023-04-25T15:10:40;17.00;99.90
24614;DHT22;12760;46.296;25.290;2023-04-25T15:13:06;17.00;99.90
24614;DHT22;12760;46.296;25.290;2023-04-25T15:15:31;17.00;99.90
24614;DHT22;12760;46.296;25.290;2023-04-25T15:17:57;17.00;99.90